Time;durP1;ratioP1;P1;durP2;ratioP2;P2;SDS_P1;SDS_P2;PMS_P1;PMS_P2;Temp;Humidity;BMP_temperature;BMP_pressure;BME280_temperature;BME280_humidity;BME280_pressure;Samples;Min_cycle;Max_cycle;Signal;HPM_P1;HPM_P2
2022/04/06 00:00:08;;;;;;;17.08;9.13;;;;;;;;;;5080154;28;20209;-89
2022/04/06 00:02:34;;;;;;;17.13;9.15;;;;;;;;;;5076016;28;20661;-88
2022/04/06 00:05:00;;;;;;;29.65;12.38;;;;;;;;;;5071997;28;20189;-88
2022/04/06 00:07:27;;;;;;;18.17;10.38;;;;;;;;;;5075682;28;20201;-87
2022/04/06 00:09:53;;;;;;;10.52;8.95;;;;;;;;;;5092005;28;20714;-87
2022/04/06 00:12:19;;;;;;;14.90;9.38;;;;;;;;;;5073947;28;20198;-90
2022/04/06 00:14:45;;;;;;;19.02;9.88;;;;;;;;;;5093533;28;20696;-89
2022/04/06 00:17:12;;;;;;;18.38;9.32;;;;;;;;;;5060019;28;20201;-90
2022/04/06 00:19:39;;;;;;;16.70;9.20;;;;;;;;;;5093379;28;20220;-89
2022/04/06 00:22:07;;;;;;;21.83;9.23;;;;;;;;;;5073141;28;20275;-88
2022/04/06 00:24:33;;;;;;;15.77;9.10;;;;;;;;;;5080148;28;20504;-89
2022/04/06 00:26:59;;;;;;;13.52;7.95;;;;;;;;;;5096495;28;20213;-90
2022/04/06 00:29:25;;;;;;;15.27;8.97;;;;;;;;;;5093582;28;20208;-89
2022/04/06 00:31:51;;;;;;;13.90;10.20;;;;;;;;;;5099641;28;20438;-88
2022/04/06 00:34:17;;;;;;;13.00;9.20;;;;;;;;;;5097832;28;20427;-89
2022/04/06 00:36:44;;;;;;;15.97;9.93;;;;;;;;;;5073369;28;20459;-88
2022/04/06 00:39:10;;;;;;;10.93;9.20;;;;;;;;;;5068216;28;20472;-90
2022/04/06 00:41:38;;;;;;;14.45;8.25;;;;;;;;;;5084757;28;20242;-89
2022/04/06 00:44:12;;;;;;;10.07;7.28;;;;;;;;;;5074198;28;20199;-89
2022/04/06 00:46:38;;;;;;;17.30;9.40;;;;;;;;;;5099696;28;20726;-88
2022/04/06 00:49:10;;;;;;;17.67;7.95;;;;;;;;;;5075866;28;20315;-89
2022/04/06 00:51:37;;;;;;;13.63;9.27;;;;;;;;;;5079765;28;20199;-90
2022/04/06 00:54:03;;;;;;;14.90;8.63;;;;;;;;;;5071933;28;20530;-89
2022/04/06 00:56:29;;;;;;;14.07;8.02;;;;;;;;;;5089133;28;20185;-90
2022/04/06 00:58:55;;;;;;;10.90;7.97;;;;;;;;;;5072741;28;20217;-90
2022/04/06 01:01:21;;;;;;;14.87;9.40;;;;;;;;;;5076361;28;20435;-90
2022/04/06 01:03:47;;;;;;;10.75;7.90;;;;;;;;;;5072230;28;20428;-88
2022/04/06 01:06:13;;;;;;;11.10;9.13;;;;;;;;;;5071383;28;20666;-89
2022/04/06 01:08:40;;;;;;;17.23;8.80;;;;;;;;;;5071810;28;20446;-88
2022/04/06 01:11:06;;;;;;;9.30;7.77;;;;;;;;;;5068880;28;20440;-89
2022/04/06 01:13:32;;;;;;;10.60;8.23;;;;;;;;;;5086078;28;20958;-88
2022/04/06 01:15:58;;;;;;;14.82;7.78;;;;;;;;;;5088204;28;20174;-88
2022/04/06 01:18:24;;;;;;;12.37;7.73;;;;;;;;;;5068944;28;20214;-89
2022/04/06 01:20:50;;;;;;;13.83;6.17;;;;;;;;;;5068911;28;20475;-88
2022/04/06 01:23:16;;;;;;;7.43;6.00;;;;;;;;;;5087512;28;20408;-89
2022/04/06 01:25:42;;;;;;;12.10;7.60;;;;;;;;;;5069766;28;20214;-88
2022/04/06 01:28:10;;;;;;;8.32;7.63;;;;;;;;;;5070451;28;20492;-88
2022/04/06 01:30:38;;;;;;;10.73;8.40;;;;;;;;;;5069450;28;20247;-88
2022/04/06 01:33:05;;;;;;;11.75;6.03;;;;;;;;;;5088270;28;20198;-88
2022/04/06 01:35:31;;;;;;;12.10;7.88;;;;;;;;;;5069293;28;20233;-88
2022/04/06 01:37:57;;;;;;;8.38;7.28;;;;;;;;;;5088568;28;20209;-90
2022/04/06 01:40:26;;;;;;;12.07;6.90;;;;;;;;;;5075509;28;20197;-89
2022/04/06 01:42:52;;;;;;;11.07;7.30;;;;;;;;;;5070288;28;20428;-86
2022/04/06 01:45:18;;;;;;;12.38;6.90;;;;;;;;;;5071347;28;20254;-87
2022/04/06 01:47:44;;;;;;;7.87;7.17;;;;;;;;;;5089131;28;20181;-88
2022/04/06 01:52:54;;;;;;;10.02;6.03;;;;;;;;;;5086062;28;20512;-88
2022/04/06 01:55:20;;;;;;;10.13;6.32;;;;;;;;;;5069612;28;20555;-88
2022/04/06 01:57:46;;;;;;;7.32;6.38;;;;;;;;;;5088739;28;20603;-89
2022/04/06 02:00:15;;;;;;;12.50;6.63;;;;;;;;;;5068919;28;20186;-88
2022/04/06 02:02:41;;;;;;;12.27;6.35;;;;;;;;;;5070997;28;20480;-89
2022/04/06 02:05:08;;;;;;;12.38;7.68;;;;;;;;;;5087999;28;20242;-88
2022/04/06 02:07:47;;;;;;;8.52;6.25;;;;;;;;;;5088779;28;20236;-88
2022/04/06 02:10:13;;;;;;;11.30;6.18;;;;;;;;;;5079916;28;20641;-88
2022/04/06 02:12:40;;;;;;;6.35;5.55;;;;;;;;;;5088421;28;20182;-89
2022/04/06 02:15:07;;;;;;;6.82;6.05;;;;;;;;;;5069624;28;20186;-87
2022/04/06 02:17:33;;;;;;;6.73;5.30;;;;;;;;;;5070174;28;20182;-88
2022/04/06 02:19:59;;;;;;;11.05;6.80;;;;;;;;;;5069578;28;20436;-87
2022/04/06 02:22:25;;;;;;;4.97;3.72;;;;;;;;;;5073131;28;20661;-87
2022/04/06 02:24:51;;;;;;;5.82;5.32;;;;;;;;;;5103310;28;20197;-89
2022/04/06 02:27:17;;;;;;;8.55;6.25;;;;;;;;;;5077797;28;20225;-86
2022/04/06 02:29:43;;;;;;;11.60;5.60;;;;;;;;;;5083304;28;20185;-88
2022/04/06 02:32:09;;;;;;;10.17;5.30;;;;;;;;;;5081025;28;20994;-86
2022/04/06 02:34:36;;;;;;;11.52;5.78;;;;;;;;;;5076232;28;20476;-87
2022/04/06 02:37:02;;;;;;;5.37;5.03;;;;;;;;;;5095652;28;20185;-86
2022/04/06 02:39:28;;;;;;;9.02;5.35;;;;;;;;;;5091120;28;20478;-86
2022/04/06 02:41:54;;;;;;;4.67;4.30;;;;;;;;;;5073968;28;20248;-85
2022/04/06 02:44:20;;;;;;;11.10;5.73;;;;;;;;;;5071921;28;20447;-85
2022/04/06 02:46:50;;;;;;;6.70;5.07;;;;;;;;;;5073527;28;20431;-87
2022/04/06 02:49:17;;;;;;;9.90;5.97;;;;;;;;;;5090467;28;20442;-87
2022/04/06 02:51:43;;;;;;;5.93;5.38;;;;;;;;;;5093519;28;20933;-86
2022/04/06 02:54:09;;;;;;;6.20;5.20;;;;;;;;;;5086274;28;20261;-87
2022/04/06 02:56:35;;;;;;;12.23;6.28;;;;;;;;;;5077173;28;20186;-86
2022/04/06 02:59:02;;;;;;;3.97;3.58;;;;;;;;;;5073957;28;20228;-89
2022/04/06 03:01:29;;;;;;;10.60;5.10;;;;;;;;;;5073675;28;20233;-88
2022/04/06 03:03:55;;;;;;;6.73;4.57;;;;;;;;;;5071656;28;20458;-86
2022/04/06 03:06:21;;;;;;;8.68;4.82;;;;;;;;;;5073449;28;20938;-87
2022/04/06 03:08:47;;;;;;;8.00;4.90;;;;;;;;;;5071877;28;20280;-87
2022/04/06 03:11:13;;;;;;;4.55;4.15;;;;;;;;;;5072691;28;20432;-85
2022/04/06 03:13:39;;;;;;;6.00;4.53;;;;;;;;;;5071568;28;20250;-87
2022/04/06 03:16:05;;;;;;;9.67;3.60;;;;;;;;;;5091382;28;20182;-87
2022/04/06 03:18:32;;;;;;;9.10;4.93;;;;;;;;;;5089585;28;20463;-86
2022/04/06 03:20:58;;;;;;;13.57;6.50;;;;;;;;;;5068961;28;20218;-88
2022/04/06 03:23:24;;;;;;;4.97;2.87;;;;;;;;;;5085171;28;20599;-86
2022/04/06 03:25:50;;;;;;;6.73;5.40;;;;;;;;;;5072934;28;20416;-88
2022/04/06 03:28:16;;;;;;;5.90;5.20;;;;;;;;;;5091248;28;20511;-86
2022/04/06 03:30:42;;;;;;;5.90;4.80;;;;;;;;;;5070906;28;20782;-87
2022/04/06 03:33:09;;;;;;;9.95;5.07;;;;;;;;;;5071666;28;20526;-85
2022/04/06 03:35:38;;;;;;;5.15;4.85;;;;;;;;;;5089523;28;20200;-87
2022/04/06 03:38:04;;;;;;;7.03;6.38;;;;;;;;;;5073018;28;20213;-85
2022/04/06 03:40:30;;;;;;;5.70;5.23;;;;;;;;;;5071858;28;20204;-86
2022/04/06 03:42:57;;;;;;;6.18;5.07;;;;;;;;;;5091328;28;20450;-87
2022/04/06 03:45:23;;;;;;;7.53;6.00;;;;;;;;;;5089074;28;20196;-85
2022/04/06 03:47:49;;;;;;;15.38;5.40;;;;;;;;;;5072099;28;20511;-85
2022/04/06 03:50:15;;;;;;;6.00;5.15;;;;;;;;;;5070740;28;20214;-87
2022/04/06 03:52:41;;;;;;;7.17;6.30;;;;;;;;;;5076581;28;20209;-86
2022/04/06 03:55:08;;;;;;;8.43;6.60;;;;;;;;;;5101957;28;20432;-86
2022/04/06 03:57:35;;;;;;;7.35;5.90;;;;;;;;;;5089831;28;20194;-86
2022/04/06 04:00:04;;;;;;;12.10;6.20;;;;;;;;;;5107422;28;20232;-85
2022/04/06 04:02:30;;;;;;;12.40;5.53;;;;;;;;;;5090763;28;20411;-86
2022/04/06 04:04:56;;;;;;;7.07;5.53;;;;;;;;;;5083767;28;20448;-85
2022/04/06 04:07:22;;;;;;;6.83;6.00;;;;;;;;;;5087306;28;20469;-87
2022/04/06 04:09:50;;;;;;;6.35;5.75;;;;;;;;;;5110252;28;20588;-86
2022/04/06 04:12:16;;;;;;;5.40;5.00;;;;;;;;;;5078624;28;20540;-87
2022/04/06 04:14:43;;;;;;;6.80;6.20;;;;;;;;;;5077361;28;20476;-85
2022/04/06 04:17:09;;;;;;;14.93;6.07;;;;;;;;;;5090585;28;20436;-86
2022/04/06 04:19:35;;;;;;;7.07;6.00;;;;;;;;;;5094348;28;20213;-85
2022/04/06 04:22:01;;;;;;;8.27;5.00;;;;;;;;;;5078010;28;20459;-86
2022/04/06 04:24:27;;;;;;;6.07;5.50;;;;;;;;;;5098713;28;20766;-86
2022/04/06 04:26:54;;;;;;;4.93;4.50;;;;;;;;;;5096583;28;20432;-86
2022/04/06 04:29:20;;;;;;;5.43;4.43;;;;;;;;;;5095583;28;20430;-82
2022/04/06 04:31:46;;;;;;;10.70;5.60;;;;;;;;;;5076430;28;20444;-87
2022/04/06 04:34:13;;;;;;;10.80;5.23;;;;;;;;;;5092018;28;20503;-85
2022/04/06 04:36:39;;;;;;;8.68;6.35;;;;;;;;;;5089814;28;20439;-82
2022/04/06 04:39:05;;;;;;;5.80;3.20;;;;;;;;;;5089117;28;20621;-86
2022/04/06 04:41:31;;;;;;;7.90;4.30;;;;;;;;;;5072213;28;20636;-85
2022/04/06 04:43:57;;;;;;;3.90;3.60;;;;;;;;;;5068670;28;20290;-84
2022/04/06 04:46:23;;;;;;;5.72;4.88;;;;;;;;;;5069894;28;21062;-84
2022/04/06 04:48:49;;;;;;;4.00;3.78;;;;;;;;;;5087195;28;20196;-84
2022/04/06 04:51:15;;;;;;;5.57;5.13;;;;;;;;;;5072060;28;20181;-83
2022/04/06 04:53:42;;;;;;;9.30;4.57;;;;;;;;;;5069938;28;20442;-86
2022/04/06 04:56:08;;;;;;;3.33;3.20;;;;;;;;;;5088891;28;20166;-86
2022/04/06 04:58:34;;;;;;;3.90;3.70;;;;;;;;;;5069342;28;21007;-86
2022/04/06 05:01:00;;;;;;;5.93;5.30;;;;;;;;;;5071175;28;20519;-84
2022/04/06 05:03:26;;;;;;;9.38;5.00;;;;;;;;;;5068933;28;20182;-86
2022/04/06 05:05:53;;;;;;;10.55;6.25;;;;;;;;;;5070806;28;20541;-85
2022/04/06 05:08:20;;;;;;;5.93;4.63;;;;;;;;;;5087371;28;20339;-85
2022/04/06 05:10:46;;;;;;;5.40;4.40;;;;;;;;;;5070144;28;20276;-87
2022/04/06 05:13:17;;;;;;;7.30;2.90;;;;;;;;;;4369333;28;10000707;-86
2022/04/06 05:15:56;;;;;;;2.83;2.73;;;;;;;;;;5061206;28;20181;-86
2022/04/06 05:18:21;;;;;;;6.03;3.83;;;;;;;;;;5077479;28;20522;-86
2022/04/06 05:20:48;;;;;;;6.80;3.73;;;;;;;;;;5073723;28;21157;-86
2022/04/06 05:23:15;;;;;;;3.78;3.42;;;;;;;;;;5093255;28;20432;-88
2022/04/06 05:25:41;;;;;;;7.75;4.50;;;;;;;;;;5071298;28;20193;-85
2022/04/06 05:28:08;;;;;;;5.70;3.80;;;;;;;;;;5067529;28;20250;-85
2022/04/06 05:30:35;;;;;;;2.90;2.70;;;;;;;;;;5080574;28;20443;-84
2022/04/06 05:33:01;;;;;;;3.35;3.15;;;;;;;;;;5080116;28;20432;-86
2022/04/06 05:35:29;;;;;;;4.40;4.10;;;;;;;;;;5103785;28;20182;-81
2022/04/06 05:37:57;;;;;;;2.93;2.40;;;;;;;;;;5070673;28;20260;-86
2022/04/06 05:40:23;;;;;;;4.32;3.13;;;;;;;;;;5090031;28;20471;-85
2022/04/06 05:42:49;;;;;;;4.30;3.73;;;;;;;;;;5077971;28;20198;-85
2022/04/06 05:45:18;;;;;;;4.20;3.95;;;;;;;;;;5071048;28;20424;-86
2022/04/06 05:47:44;;;;;;;6.68;3.63;;;;;;;;;;5053277;28;20212;-85
2022/04/06 05:50:11;;;;;;;6.30;4.43;;;;;;;;;;5079010;28;21086;-85
2022/04/06 05:52:37;;;;;;;6.00;4.23;;;;;;;;;;5068533;28;20198;-85
2022/04/06 05:55:04;;;;;;;7.03;4.63;;;;;;;;;;5076474;28;20419;-85
2022/04/06 05:57:30;;;;;;;4.40;4.20;;;;;;;;;;5104246;28;20189;-86
2022/04/06 05:59:57;;;;;;;6.40;4.72;;;;;;;;;;5089888;28;20217;-87
2022/04/06 06:02:24;;;;;;;7.47;4.22;;;;;;;;;;5078767;28;20299;-85
2022/04/06 06:04:51;;;;;;;5.23;4.10;;;;;;;;;;5093802;28;20620;-84
2022/04/06 06:07:19;;;;;;;5.13;4.70;;;;;;;;;;5076341;28;20948;-84
2022/04/06 06:09:46;;;;;;;5.33;4.90;;;;;;;;;;5069501;28;20495;-81
2022/04/06 06:12:12;;;;;;;7.85;4.38;;;;;;;;;;5063510;28;21062;-88
2022/04/06 06:14:38;;;;;;;4.13;3.53;;;;;;;;;;5092301;28;20229;-86
2022/04/06 06:17:04;;;;;;;4.80;4.37;;;;;;;;;;5067461;28;20195;-85
2022/04/06 06:19:30;;;;;;;4.85;4.47;;;;;;;;;;5101825;28;20471;-87
2022/04/06 06:21:56;;;;;;;4.70;4.20;;;;;;;;;;5075757;28;20324;-83
2022/04/06 06:24:24;;;;;;;9.98;6.18;;;;;;;;;;5099124;28;20216;-85
2022/04/06 06:26:50;;;;;;;6.35;4.47;;;;;;;;;;5092185;28;20192;-86
2022/04/06 06:29:17;;;;;;;4.28;3.97;;;;;;;;;;5098426;28;20208;-84
2022/04/06 06:31:43;;;;;;;7.35;3.85;;;;;;;;;;5090627;28;20580;-86
2022/04/06 06:34:09;;;;;;;7.63;3.53;;;;;;;;;;5101998;28;20243;-86
2022/04/06 06:36:35;;;;;;;5.43;2.70;;;;;;;;;;5069826;28;20631;-85
2022/04/06 06:39:02;;;;;;;4.18;3.80;;;;;;;;;;5079429;28;20224;-88
2022/04/06 06:41:29;;;;;;;5.03;4.45;;;;;;;;;;5083639;28;20246;-84
2022/04/06 06:43:56;;;;;;;6.53;3.40;;;;;;;;;;5083795;28;20181;-85
2022/04/06 06:46:22;;;;;;;5.53;3.22;;;;;;;;;;5079487;28;20427;-84
2022/04/06 06:48:49;;;;;;;4.18;2.80;;;;;;;;;;5082628;28;20250;-87
2022/04/06 06:51:20;;;;;;;4.17;3.40;;;;;;;;;;5098391;28;20183;-88
2022/04/06 06:53:53;;;;;;;4.43;3.70;;;;;;;;;;5129921;28;20403;-86
2022/04/06 06:56:22;;;;;;;7.20;3.65;;;;;;;;;;5090910;28;20212;-82
2022/04/06 06:58:54;;;;;;;6.40;3.38;;;;;;;;;;5093355;28;20212;-87
2022/04/06 07:01:21;;;;;;;4.37;4.00;;;;;;;;;;5086286;28;20182;-87
2022/04/06 07:03:53;;;;;;;6.23;3.40;;;;;;;;;;5105189;28;20470;-84
2022/04/06 07:06:19;;;;;;;4.00;3.40;;;;;;;;;;5083913;28;20661;-87
2022/04/06 07:08:45;;;;;;;7.90;3.47;;;;;;;;;;5079395;28;20178;-87
2022/04/06 07:11:11;;;;;;;5.45;2.75;;;;;;;;;;5091929;28;20226;-86
2022/04/06 07:13:37;;;;;;;3.70;3.43;;;;;;;;;;5074711;28;20182;-85
2022/04/06 07:16:05;;;;;;;8.20;4.57;;;;;;;;;;5075034;28;20989;-85
2022/04/06 07:18:32;;;;;;;4.15;3.85;;;;;;;;;;5092833;28;20836;-86
2022/04/06 07:20:58;;;;;;;5.07;2.80;;;;;;;;;;5075964;28;20275;-88
2022/04/06 07:23:24;;;;;;;3.97;3.60;;;;;;;;;;5095052;28;20178;-88
2022/04/06 07:25:50;;;;;;;6.67;3.80;;;;;;;;;;5076647;28;20189;-87
2022/04/06 07:28:16;;;;;;;3.97;3.10;;;;;;;;;;5075798;28;20929;-85
2022/04/06 07:30:45;;;;;;;4.07;3.40;;;;;;;;;;5094239;28;21024;-83
2022/04/06 07:33:13;;;;;;;3.15;3.05;;;;;;;;;;5077699;28;20213;-88
2022/04/06 07:35:39;;;;;;;4.18;3.83;;;;;;;;;;5097690;28;20659;-87
2022/04/06 07:38:06;;;;;;;4.43;4.05;;;;;;;;;;5091767;28;20249;-87
2022/04/06 07:40:32;;;;;;;3.25;3.05;;;;;;;;;;5092204;28;20234;-88
2022/04/06 07:43:01;;;;;;;3.22;3.13;;;;;;;;;;5109685;28;20195;-89
2022/04/06 07:45:27;;;;;;;4.33;4.07;;;;;;;;;;5075018;28;20193;-89
2022/04/06 07:47:54;;;;;;;4.13;3.47;;;;;;;;;;5081098;28;20463;-89
2022/04/06 07:50:21;;;;;;;3.72;3.45;;;;;;;;;;5075964;28;20189;-86
2022/04/06 07:52:47;;;;;;;15.45;9.77;;;;;;;;;;5085899;28;20194;-87
2022/04/06 07:55:14;;;;;;;4.10;3.17;;;;;;;;;;5073067;28;20549;-87
2022/04/06 07:57:40;;;;;;;4.17;3.87;;;;;;;;;;4736737;28;10000360;-86
2022/04/06 08:00:07;;;;;;;4.95;4.25;;;;;;;;;;5091250;28;20198;-87
2022/04/06 08:02:33;;;;;;;4.50;4.20;;;;;;;;;;5069750;28;20411;-86
2022/04/06 08:04:59;;;;;;;6.47;4.80;;;;;;;;;;5070517;28;20194;-88
2022/04/06 08:07:26;;;;;;;6.97;4.90;;;;;;;;;;5078795;28;20585;-86
2022/04/06 08:09:52;;;;;;;5.28;4.65;;;;;;;;;;5095138;28;20453;-86
2022/04/06 08:12:18;;;;;;;4.45;4.10;;;;;;;;;;5056418;28;20197;-90
2022/04/06 08:14:46;;;;;;;2.45;2.35;;;;;;;;;;5103153;28;20181;-90
2022/04/06 08:17:12;;;;;;;5.43;3.30;;;;;;;;;;5089073;28;20181;-87
2022/04/06 08:19:38;;;;;;;3.22;3.15;;;;;;;;;;5093310;28;20279;-81
2022/04/06 08:22:07;;;;;;;3.58;3.58;;;;;;;;;;5093241;28;20202;-87
2022/04/06 08:24:34;;;;;;;2.78;2.58;;;;;;;;;;5126336;28;20183;-82
2022/04/06 08:27:21;;;;;;;4.07;3.60;;;;;;;;;;5076700;28;20210;-86
2022/04/06 08:29:50;;;;;;;3.40;3.00;;;;;;;;;;5091234;28;20175;-89
2022/04/06 08:32:16;;;;;;;4.00;3.58;;;;;;;;;;5106839;28;20174;-86
2022/04/06 08:34:43;;;;;;;2.67;2.00;;;;;;;;;;5082695;28;20254;-86
2022/04/06 08:37:09;;;;;;;4.70;4.30;;;;;;;;;;5102740;28;20189;-85
2022/04/06 08:42:57;;;;;;;2.45;2.30;;;;;;;;;;5101388;28;20298;-90
2022/04/06 08:45:26;;;;;;;2.50;2.40;;;;;;;;;;5091054;28;20196;-84
2022/04/06 08:47:53;;;;;;;5.38;3.17;;;;;;;;;;5083923;28;20194;-86
2022/04/06 08:50:20;;;;;;;3.00;2.78;;;;;;;;;;5082172;28;20181;-83
2022/04/06 08:52:46;;;;;;;5.28;2.20;;;;;;;;;;5079109;28;20201;-91
2022/04/06 08:55:13;;;;;;;4.50;3.17;;;;;;;;;;5080228;28;20603;-89
2022/04/06 08:58:03;;;;;;;4.93;2.70;;;;;;;;;;5078380;28;20427;-90
2022/04/06 09:00:29;;;;;;;2.80;2.60;;;;;;;;;;4724343;28;10000012;-86
2022/04/06 09:02:55;;;;;;;3.47;2.50;;;;;;;;;;5075247;28;20201;-87
2022/04/06 09:05:23;;;;;;;3.10;2.85;;;;;;;;;;5091595;28;20478;-90
2022/04/06 09:07:52;;;;;;;1.75;1.50;;;;;;;;;;5077108;28;20178;-86
2022/04/06 09:10:31;;;;;;;3.07;2.60;;;;;;;;;;5091018;28;20188;-88
2022/04/06 09:13:12;;;;;;;2.00;2.00;;;;;;;;;;5091548;28;20423;-84
2022/04/06 09:15:38;;;;;;;2.00;1.80;;;;;;;;;;5071229;28;20423;-85
2022/04/06 09:18:04;;;;;;;1.70;1.70;;;;;;;;;;5070751;28;20815;-85
2022/04/06 09:20:31;;;;;;;2.28;1.67;;;;;;;;;;5085933;28;20193;-84
2022/04/06 09:23:04;;;;;;;4.60;2.10;;;;;;;;;;5064628;28;20291;-85
2022/04/06 09:25:37;;;;;;;2.07;1.60;;;;;;;;;;5086653;28;20416;-82
2022/04/06 09:28:06;;;;;;;2.00;1.80;;;;;;;;;;5093415;28;20526;-86
2022/04/06 09:30:36;;;;;;;4.83;1.60;;;;;;;;;;5089018;28;20416;-83
2022/04/06 09:33:06;;;;;;;4.67;1.80;;;;;;;;;;5069212;28;20431;-83
2022/04/06 09:35:34;;;;;;;3.27;2.00;;;;;;;;;;5104689;28;20455;-84
2022/04/06 09:38:10;;;;;;;3.33;2.08;;;;;;;;;;5081601;28;20420;-83
2022/04/06 09:40:37;;;;;;;1.45;1.38;;;;;;;;;;5089112;28;20184;-82
2022/04/06 09:43:04;;;;;;;5.13;3.23;;;;;;;;;;5091084;28;20276;-80
2022/04/06 09:48:15;;;;;;;2.60;1.73;;;;;;;;;;5088413;28;20483;-84
2022/04/06 09:50:42;;;;;;;1.20;1.20;;;;;;;;;;5086914;28;20396;-82
2022/04/06 09:53:08;;;;;;;4.72;2.17;;;;;;;;;;5080119;28;20217;-80
2022/04/06 09:55:35;;;;;;;4.00;1.95;;;;;;;;;;5084143;28;20249;-81
2022/04/06 09:58:02;;;;;;;4.03;1.65;;;;;;;;;;5082390;28;20713;-82
2022/04/06 10:00:31;;;;;;;3.47;1.65;;;;;;;;;;5067922;28;20793;-81
2022/04/06 10:03:00;;;;;;;5.28;2.22;;;;;;;;;;5092908;28;20188;-81
2022/04/06 10:05:28;;;;;;;1.05;1.05;;;;;;;;;;5095468;28;20269;-83
2022/04/06 10:07:55;;;;;;;1.48;1.48;;;;;;;;;;5067658;28;20421;-83
2022/04/06 10:10:23;;;;;;;6.60;2.10;;;;;;;;;;5087284;28;20170;-83
2022/04/06 10:12:49;;;;;;;1.40;1.10;;;;;;;;;;5084774;28;20424;-82
2022/04/06 10:15:16;;;;;;;3.90;2.40;;;;;;;;;;5087550;28;20484;-84
2022/04/06 10:17:42;;;;;;;2.30;2.08;;;;;;;;;;5066075;28;20530;-83
2022/04/06 10:20:28;;;;;;;1.60;1.50;;;;;;;;;;5086337;28;20613;-84
2022/04/06 10:22:54;;;;;;;1.92;1.83;;;;;;;;;;5070030;28;21256;-88
2022/04/06 10:25:39;;;;;;;1.57;1.50;;;;;;;;;;5083145;28;20189;-85
2022/04/06 10:28:10;;;;;;;1.15;1.05;;;;;;;;;;5086799;28;20458;-89
2022/04/06 10:30:38;;;;;;;4.07;2.38;;;;;;;;;;5090831;28;20277;-86
2022/04/06 10:33:18;;;;;;;2.27;1.90;;;;;;;;;;5073739;28;20193;-84
2022/04/06 10:35:45;;;;;;;7.73;1.43;;;;;;;;;;5072183;28;20449;-86
2022/04/06 10:38:15;;;;;;;2.00;1.90;;;;;;;;;;5087766;28;20539;-87
2022/04/06 10:40:47;;;;;;;1.90;1.80;;;;;;;;;;5087799;28;20188;-85
2022/04/06 10:43:31;;;;;;;2.73;2.03;;;;;;;;;;5082594;28;20182;-81
2022/04/06 10:45:58;;;;;;;1.30;1.30;;;;;;;;;;5093759;28;20420;-86
2022/04/06 10:48:25;;;;;;;1.63;1.53;;;;;;;;;;5098557;28;20953;-85
2022/04/06 10:50:51;;;;;;;3.70;1.90;;;;;;;;;;5084617;28;20412;-86
2022/04/06 10:53:20;;;;;;;2.60;2.40;;;;;;;;;;5092996;28;20268;-86
2022/04/06 10:55:58;;;;;;;4.57;1.40;;;;;;;;;;5102406;28;20521;-84
2022/04/06 10:58:26;;;;;;;2.35;1.42;;;;;;;;;;5097910;28;20264;-82
2022/04/06 11:01:11;;;;;;;1.75;1.65;;;;;;;;;;5076829;28;20199;-81
2022/04/06 11:03:41;;;;;;;2.00;1.90;;;;;;;;;;5091876;28;20268;-88
2022/04/06 11:06:07;;;;;;;1.10;1.10;;;;;;;;;;5089900;28;20188;-86
2022/04/06 11:11:45;;;;;;;3.43;2.10;;;;;;;;;;5101794;28;20467;-86
2022/04/06 11:14:12;;;;;;;2.50;1.93;;;;;;;;;;5082970;28;20500;-87
2022/04/06 11:16:41;;;;;;;1.67;1.58;;;;;;;;;;5101181;28;20447;-87
2022/04/06 11:19:08;;;;;;;1.73;1.63;;;;;;;;;;5089966;28;20280;-86
2022/04/06 11:21:34;;;;;;;1.60;1.57;;;;;;;;;;5073050;28;20456;-85
2022/04/06 11:24:03;;;;;;;1.50;1.37;;;;;;;;;;5088551;28;20929;-85
2022/04/06 11:26:38;;;;;;;1.70;1.60;;;;;;;;;;5092806;28;20776;-85
2022/04/06 11:29:04;;;;;;;2.25;2.15;;;;;;;;;;5090387;28;20510;-83
2022/04/06 11:31:30;;;;;;;1.63;1.60;;;;;;;;;;5074935;28;20251;-83
2022/04/06 11:33:56;;;;;;;1.27;1.25;;;;;;;;;;5095071;28;20439;-85
2022/04/06 11:36:22;;;;;;;2.13;2.03;;;;;;;;;;5070040;28;20373;-83
2022/04/06 11:38:51;;;;;;;2.30;2.30;;;;;;;;;;5087802;28;20566;-85
2022/04/06 11:41:21;;;;;;;2.15;2.15;;;;;;;;;;5097972;28;20434;-85
2022/04/06 11:43:51;;;;;;;2.60;2.50;;;;;;;;;;5080280;28;20201;-85
2022/04/06 11:46:17;;;;;;;2.00;1.90;;;;;;;;;;5088848;28;20431;-83
2022/04/06 11:48:45;;;;;;;2.17;1.60;;;;;;;;;;5089467;28;20204;-85
2022/04/06 11:53:53;;;;;;;1.88;1.77;;;;;;;;;;5069484;28;20559;-87
2022/04/06 11:56:26;;;;;;;2.35;2.20;;;;;;;;;;5060975;28;20677;-85
2022/04/06 11:58:57;;;;;;;2.63;2.47;;;;;;;;;;5071430;28;20267;-87
2022/04/06 12:01:28;;;;;;;1.80;1.70;;;;;;;;;;5062462;28;20608;-88
2022/04/06 12:04:12;;;;;;;1.80;1.80;;;;;;;;;;5064360;28;20607;-86
2022/04/06 12:06:38;;;;;;;3.38;3.00;;;;;;;;;;5048751;28;20276;-89
2022/04/06 12:09:06;;;;;;;2.78;2.58;;;;;;;;;;5064332;28;20246;-84
2022/04/06 12:11:32;;;;;;;5.50;4.30;;;;;;;;;;5055756;28;20211;-85
2022/04/06 12:13:58;;;;;;;4.53;2.20;;;;;;;;;;5056800;28;20194;-85
2022/04/06 12:16:25;;;;;;;2.55;2.45;;;;;;;;;;5070117;28;20454;-85
2022/04/06 12:18:54;;;;;;;1.57;1.57;;;;;;;;;;5055285;28;20229;-85
2022/04/06 12:21:29;;;;;;;2.42;2.42;;;;;;;;;;5060768;28;20436;-85
2022/04/06 12:23:56;;;;;;;3.33;3.13;;;;;;;;;;5063144;28;20201;-85
2022/04/06 12:26:22;;;;;;;4.43;2.20;;;;;;;;;;5059556;28;20293;-86
2022/04/06 12:28:49;;;;;;;2.77;2.20;;;;;;;;;;5060029;28;20464;-85
2022/04/06 12:31:15;;;;;;;2.60;2.50;;;;;;;;;;5049970;28;20456;-85
2022/04/06 12:33:44;;;;;;;2.58;2.40;;;;;;;;;;5062068;28;20803;-85
2022/04/06 12:36:18;;;;;;;1.80;1.80;;;;;;;;;;5068388;28;20179;-84
2022/04/06 12:39:06;;;;;;;2.10;2.10;;;;;;;;;;5047503;28;20317;-87
2022/04/06 12:41:34;;;;;;;1.90;1.70;;;;;;;;;;5056363;28;20198;-83
2022/04/06 12:44:02;;;;;;;3.30;3.00;;;;;;;;;;4700418;28;10000562;-85
2022/04/06 12:46:35;;;;;;;2.40;2.30;;;;;;;;;;5073782;28;20425;-82
2022/04/06 12:49:21;;;;;;;2.80;2.70;;;;;;;;;;5052827;28;20502;-84
2022/04/06 12:51:47;;;;;;;4.15;1.70;;;;;;;;;;5058088;28;20452;-86
2022/04/06 12:54:13;;;;;;;3.15;2.42;;;;;;;;;;5052254;28;20194;-86
2022/04/06 12:56:39;;;;;;;3.20;2.20;;;;;;;;;;5046433;28;20758;-88
2022/04/06 12:59:07;;;;;;;9.05;8.10;;;;;;;;;;5056013;28;20693;-85
2022/04/06 13:01:33;;;;;;;2.30;2.15;;;;;;;;;;5050516;28;20186;-86
2022/04/06 13:03:59;;;;;;;2.50;2.28;;;;;;;;;;5053140;28;20194;-86
2022/04/06 13:06:25;;;;;;;1.63;1.63;;;;;;;;;;5070936;28;20192;-88
2022/04/06 13:08:52;;;;;;;22.23;3.75;;;;;;;;;;5052542;28;20449;-90
2022/04/06 13:11:18;;;;;;;4.53;3.00;;;;;;;;;;5067006;28;20564;-88
2022/04/06 13:13:44;;;;;;;2.50;2.40;;;;;;;;;;5086664;28;20445;-85
2022/04/06 13:16:10;;;;;;;2.30;2.20;;;;;;;;;;5070150;28;20469;-86
2022/04/06 13:18:39;;;;;;;2.20;2.20;;;;;;;;;;5057431;28;20218;-88
2022/04/06 13:21:06;;;;;;;2.33;2.33;;;;;;;;;;5044250;28;20967;-89
2022/04/06 13:23:32;;;;;;;2.05;1.30;;;;;;;;;;5051870;28;20447;-87
2022/04/06 13:25:58;;;;;;;2.17;1.92;;;;;;;;;;5069585;28;20240;-87
2022/04/06 13:28:32;;;;;;;2.70;2.33;;;;;;;;;;5056783;28;20194;-90
2022/04/06 13:31:02;;;;;;;2.33;2.17;;;;;;;;;;5061661;28;20416;-88
2022/04/06 13:33:28;;;;;;;6.45;2.30;;;;;;;;;;5048299;28;20202;-87
2022/04/06 13:35:57;;;;;;;2.75;2.47;;;;;;;;;;5059346;28;20242;-89
2022/04/06 13:38:23;;;;;;;1.95;1.83;;;;;;;;;;5077313;28;20651;-87
2022/04/06 13:40:49;;;;;;;1.70;1.70;;;;;;;;;;5067161;28;20629;-89
2022/04/06 13:43:46;;;;;;;2.00;1.90;;;;;;;;;;5060919;28;20526;-90
2022/04/06 13:46:13;;;;;;;2.57;2.50;;;;;;;;;;5054743;28;20484;-90
2022/04/06 13:48:41;;;;;;;3.27;3.00;;;;;;;;;;5077837;28;20994;-91
2022/04/06 13:51:08;;;;;;;1.97;1.87;;;;;;;;;;5062668;28;20425;-86
2022/04/06 13:53:34;;;;;;;2.47;1.87;;;;;;;;;;5077121;28;20480;-83
2022/04/06 13:56:00;;;;;;;2.00;1.90;;;;;;;;;;5075715;28;20448;-82
2022/04/06 13:58:26;;;;;;;1.33;1.23;;;;;;;;;;5090557;28;20924;-82
2022/04/06 14:00:52;;;;;;;2.38;1.70;;;;;;;;;;5078085;28;20431;-82
2022/04/06 14:03:18;;;;;;;2.28;2.13;;;;;;;;;;5087721;28;20192;-86
2022/04/06 14:05:45;;;;;;;1.73;1.73;;;;;;;;;;5071025;28;20957;-86
2022/04/06 14:08:11;;;;;;;2.30;2.20;;;;;;;;;;5090087;28;20473;-86
2022/04/06 14:10:37;;;;;;;2.03;1.90;;;;;;;;;;5095206;28;20899;-86
2022/04/06 14:13:04;;;;;;;2.40;2.30;;;;;;;;;;5072132;28;20427;-86
2022/04/06 14:15:31;;;;;;;2.43;2.43;;;;;;;;;;5091904;28;20819;-84
2022/04/06 14:17:57;;;;;;;1.50;1.50;;;;;;;;;;5076357;28;20500;-84
2022/04/06 14:20:23;;;;;;;1.87;1.70;;;;;;;;;;5068357;28;20925;-85
2022/04/06 14:22:49;;;;;;;1.90;1.80;;;;;;;;;;5077000;28;20446;-86
2022/04/06 14:25:19;;;;;;;2.20;2.10;;;;;;;;;;5102445;28;20423;-83
2022/04/06 14:27:46;;;;;;;2.37;2.37;;;;;;;;;;5100750;28;20423;-82
2022/04/06 14:30:16;;;;;;;2.70;2.50;;;;;;;;;;5074208;28;20781;-85
2022/04/06 14:32:59;;;;;;;2.33;2.10;;;;;;;;;;5100024;28;20510;-85
2022/04/06 14:35:29;;;;;;;3.40;1.57;;;;;;;;;;5089967;28;20427;-81
2022/04/06 14:37:57;;;;;;;2.95;2.75;;;;;;;;;;5099672;28;20436;-83
2022/04/06 14:40:26;;;;;;;2.10;2.10;;;;;;;;;;5066913;28;20199;-83
2022/04/06 14:42:59;;;;;;;2.30;1.90;;;;;;;;;;5093930;28;20222;-85
2022/04/06 14:45:27;;;;;;;1.80;1.70;;;;;;;;;;5075248;28;20443;-84
2022/04/06 14:47:54;;;;;;;2.00;1.90;;;;;;;;;;5096058;28;20431;-83
2022/04/06 14:50:24;;;;;;;2.00;1.83;;;;;;;;;;5084116;28;20470;-85
2022/04/06 14:52:56;;;;;;;1.73;1.73;;;;;;;;;;5079885;28;21153;-85
2022/04/06 14:55:26;;;;;;;2.40;1.80;;;;;;;;;;5083201;28;20430;-84
2022/04/06 14:57:55;;;;;;;1.90;1.60;;;;;;;;;;5092953;28;20966;-83